Tuesday, February 20, 2018, 9:34 AM GMT
Back to Local

CWTN, Cap Tourmente

Location: , , Canada Lat: 47.067
Local Time: 9:34 AM GMT ( 9:34 GMT) Lon: -70.8
Time Zone: GMT Elev: 19 ft

Show me the last for .
Show Coded

Time T Td Feel RH Dir Speed Gust Alt SLP Vis Weather Sky Remarks
2018-02-20 09:00 34 34 - 100 20° 1 - - 30.24 0 None
2018-02-20 08:00 33 33 - 100 140° 1 - - 30.23 0 None
2018-02-20 07:00 33 33 - 99 - Calm - - 30.22 0 None
2018-02-20 06:00 34 31 - 90 - Calm - - 30.21 0 None
2018-02-20 05:00 36 32 - 85 250° 1 - - 30.20 0 None
2018-02-20 04:00 37 32 34 82 280° 3 - - 30.21 0 None
2018-02-20 03:00 37 31 34 76 240° 5 - - 30.19 0 None
2018-02-20 02:00 38 29 35 69 270° 5 - - 30.19 0 None
2018-02-20 01:00 37 28 34 70 270° 3 - - 30.17 0 None
2018-02-20 00:00 34 29 - 81 290° 1 - - 30.17 0 None
2018-02-19 23:00 35 28 - 75 210° 2 - - 30.16 0 None
2018-02-19 22:00 37 28 34 69 280° 3 - - 30.17 0 None
2018-02-19 21:00 40 23 38 50 270° 3 - - 30.17 0 None
2018-02-19 20:00 40 21 37 46 270° 5 - - 30.18 0 None
2018-02-19 19:00 38 21 34 50 260° 5 - - 30.19 0 None
2018-02-19 18:00 39 20 34 46 260° 6 - - 30.21 0 None
2018-02-19 17:00 35 19 30 51 260° 7 - - 30.25 0 None
2018-02-19 16:00 35 19 29 50 260° 7 - - 30.28 0 None
2018-02-19 15:00 31 19 25 60 260° 7 - - 30.30 0 Pressure falling rapidly
2018-02-19 14:00 30 19 24 62 260° 6 - - 30.36 0 None
2018-02-19 13:00 29 19 22 68 270° 6 - - 30.38 0 None
2018-02-19 12:00 27 19 20 73 280° 6 - - 30.39 0 None
2018-02-19 11:00 26 20 19 77 270° 6 - - 30.40 0 None
2018-02-19 10:00 23 19 17 85 280° 5 - - 30.40 0 None

Support USWX by starting your Amazon purchase here.